Time;durP1;ratioP1;P1;durP2;ratioP2;P2;SDS_P1;SDS_P2;PMS_P1;PMS_P2;Temp;Humidity;BMP_temperature;BMP_pressure;BME280_temperature;BME280_humidity;BME280_pressure;Samples;Min_cycle;Max_cycle;Signal;HPM_P1;HPM_P2
2023/10/17 00:02:00;;;;;;;4.00;2.00;;;;;;;;;;5089979;28;20433;-69
2023/10/17 00:04:27;;;;;;;2.60;2.47;;;;;;;;;;5089792;28;20432;-69
2023/10/17 00:07:02;;;;;;;3.47;2.10;;;;;;;;;;5091495;28;20444;-69
2023/10/17 00:09:29;;;;;;;3.30;2.10;;;;;;;;;;5091998;28;20432;-71
2023/10/17 00:14:26;;;;;;;1.60;1.60;;;;;;;;;;5087638;28;20472;-70
2023/10/17 00:16:55;;;;;;;1.90;1.90;;;;;;;;;;5089240;28;20524;-73
2023/10/17 00:19:31;;;;;;;2.17;2.13;;;;;;;;;;5092328;28;20511;-69
2023/10/17 00:21:59;;;;;;;1.93;1.93;;;;;;;;;;5091367;28;20436;-71
2023/10/17 00:24:25;;;;;;;1.90;1.80;;;;;;;;;;5083814;28;20452;-70
2023/10/17 00:26:51;;;;;;;2.23;1.67;;;;;;;;;;5092032;28;20421;-72
2023/10/17 00:29:17;;;;;;;2.07;1.97;;;;;;;;;;5091926;28;20987;-72
2023/10/17 00:31:46;;;;;;;2.77;2.57;;;;;;;;;;5086764;28;20416;-69
2023/10/17 00:34:23;;;;;;;2.00;1.80;;;;;;;;;;5089523;28;20551;-69
2023/10/17 00:36:50;;;;;;;1.60;1.57;;;;;;;;;;5091206;28;20997;-69
2023/10/17 00:39:32;;;;;;;2.57;1.70;;;;;;;;;;5089477;28;20582;-71
2023/10/17 00:44:30;;;;;;;2.43;2.17;;;;;;;;;;5086174;28;20441;-71
2023/10/17 00:46:57;;;;;;;3.63;1.90;;;;;;;;;;5089111;28;20494;-70
2023/10/17 00:49:23;;;;;;;2.50;1.60;;;;;;;;;;5090387;28;20451;-70
2023/10/17 00:51:52;;;;;;;1.47;1.47;;;;;;;;;;5090496;28;20454;-71
2023/10/17 00:54:18;;;;;;;2.00;1.90;;;;;;;;;;5087125;28;20517;-70
2023/10/17 00:56:45;;;;;;;1.80;1.70;;;;;;;;;;5090997;28;20482;-71
2023/10/17 00:59:11;;;;;;;2.40;2.20;;;;;;;;;;5090309;28;20476;-71
2023/10/17 01:01:40;;;;;;;1.63;1.63;;;;;;;;;;5089781;28;20849;-71
2023/10/17 01:04:06;;;;;;;2.13;1.63;;;;;;;;;;5084931;28;20440;-69
2023/10/17 01:08:58;;;;;;;1.70;1.60;;;;;;;;;;5088935;28;20444;-69
2023/10/17 01:11:28;;;;;;;1.93;1.83;;;;;;;;;;5090762;28;20436;-69
2023/10/17 01:13:54;;;;;;;2.03;1.73;;;;;;;;;;5088452;28;20497;-69
2023/10/17 01:16:25;;;;;;;1.50;1.50;;;;;;;;;;5089946;28;20424;-69
2023/10/17 01:18:53;;;;;;;2.17;1.20;;;;;;;;;;5087751;28;20980;-70
2023/10/17 01:21:19;;;;;;;2.40;1.90;;;;;;;;;;5091123;28;20425;-72
2023/10/17 01:23:46;;;;;;;1.97;1.97;;;;;;;;;;5088659;28;20480;-72
2023/10/17 01:26:23;;;;;;;1.93;1.83;;;;;;;;;;5087700;28;20436;-70
2023/10/17 01:28:49;;;;;;;1.57;1.57;;;;;;;;;;5084871;28;20431;-70
2023/10/17 01:31:16;;;;;;;2.07;1.97;;;;;;;;;;5084517;28;20564;-69
2023/10/17 01:33:43;;;;;;;1.73;1.63;;;;;;;;;;5087560;28;20449;-73
2023/10/17 01:36:10;;;;;;;2.70;2.60;;;;;;;;;;5086773;28;20444;-69
2023/10/17 01:38:36;;;;;;;1.90;1.80;;;;;;;;;;5086449;28;20491;-73
2023/10/17 01:41:02;;;;;;;3.47;2.10;;;;;;;;;;5085895;28;20445;-72
2023/10/17 01:43:36;;;;;;;2.03;1.90;;;;;;;;;;5080630;28;21090;-70
2023/10/17 01:46:05;;;;;;;1.80;1.60;;;;;;;;;;5089746;28;20417;-70
2023/10/17 01:48:32;;;;;;;2.07;1.97;;;;;;;;;;5088923;28;20440;-69
2023/10/17 01:51:01;;;;;;;2.50;1.93;;;;;;;;;;5088113;28;20451;-70
2023/10/17 01:53:27;;;;;;;1.30;1.30;;;;;;;;;;5083424;28;20485;-69
2023/10/17 01:56:06;;;;;;;2.33;1.47;;;;;;;;;;5088340;28;20598;-69
2023/10/17 01:58:36;;;;;;;17.60;1.73;;;;;;;;;;5083669;28;20875;-69
2023/10/17 02:01:03;;;;;;;1.40;1.30;;;;;;;;;;5085625;28;20525;-69
2023/10/17 02:03:30;;;;;;;3.20;1.73;;;;;;;;;;5087765;28;20799;-71
2023/10/17 02:05:56;;;;;;;4.10;1.60;;;;;;;;;;5088618;28;20944;-69
2023/10/17 02:08:22;;;;;;;5.40;1.80;;;;;;;;;;5088378;28;20499;-71
2023/10/17 02:10:48;;;;;;;3.90;1.80;;;;;;;;;;5088274;28;20424;-69
2023/10/17 02:13:15;;;;;;;1.43;1.43;;;;;;;;;;5070115;28;20478;-70
2023/10/17 02:15:41;;;;;;;1.53;1.53;;;;;;;;;;5088935;28;20985;-73
2023/10/17 02:18:12;;;;;;;1.60;1.60;;;;;;;;;;5089018;28;20496;-72
2023/10/17 02:20:45;;;;;;;1.57;1.53;;;;;;;;;;5085469;28;20466;-69
2023/10/17 02:23:29;;;;;;;1.50;1.50;;;;;;;;;;5088629;28;20432;-72
2023/10/17 02:26:00;;;;;;;3.23;2.37;;;;;;;;;;5087267;28;20428;-73
2023/10/17 02:28:26;;;;;;;2.07;1.97;;;;;;;;;;5084164;28;20540;-72
2023/10/17 02:30:52;;;;;;;1.87;1.87;;;;;;;;;;5083281;28;20520;-73
2023/10/17 02:33:18;;;;;;;2.50;1.77;;;;;;;;;;5084192;28;20428;-72
2023/10/17 02:36:12;;;;;;;1.50;1.50;;;;;;;;;;5086945;28;20519;-71
2023/10/17 02:38:38;;;;;;;2.40;2.30;;;;;;;;;;5082379;28;20842;-71
2023/10/17 02:41:06;;;;;;;1.60;1.50;;;;;;;;;;5082388;28;20437;-73
2023/10/17 02:43:37;;;;;;;2.00;1.83;;;;;;;;;;5082292;28;20448;-69
2023/10/17 02:46:04;;;;;;;5.60;1.60;;;;;;;;;;5082624;28;20759;-69
2023/10/17 02:48:37;;;;;;;2.03;2.00;;;;;;;;;;5082068;28;20439;-70
2023/10/17 02:51:03;;;;;;;1.80;1.77;;;;;;;;;;5082989;28;20901;-70
2023/10/17 02:53:30;;;;;;;1.97;1.97;;;;;;;;;;5083063;28;20468;-69
2023/10/17 02:55:57;;;;;;;2.00;1.90;;;;;;;;;;5080099;28;20989;-69
2023/10/17 02:58:23;;;;;;;4.40;1.70;;;;;;;;;;5082537;28;20516;-69
2023/10/17 03:00:52;;;;;;;2.07;1.93;;;;;;;;;;5076822;28;20429;-70
2023/10/17 03:03:19;;;;;;;2.63;2.43;;;;;;;;;;5080629;28;20858;-71
2023/10/17 03:05:50;;;;;;;2.60;2.50;;;;;;;;;;5083560;28;20777;-69
2023/10/17 03:08:20;;;;;;;2.70;1.80;;;;;;;;;;5082827;28;20436;-69
2023/10/17 03:10:47;;;;;;;2.60;2.50;;;;;;;;;;5085033;28;20425;-69
2023/10/17 03:13:23;;;;;;;1.87;1.87;;;;;;;;;;5084953;28;20824;-70
2023/10/17 03:16:00;;;;;;;1.70;1.70;;;;;;;;;;5087647;28;20428;-71
2023/10/17 03:18:26;;;;;;;1.43;1.43;;;;;;;;;;5087711;28;20508;-71
2023/10/17 03:20:52;;;;;;;2.30;2.30;;;;;;;;;;5083020;28;20469;-70
2023/10/17 03:23:28;;;;;;;1.60;1.60;;;;;;;;;;5088117;28;20437;-69
2023/10/17 03:26:03;;;;;;;1.90;1.70;;;;;;;;;;5086313;28;20432;-69
2023/10/17 03:28:33;;;;;;;3.27;3.00;;;;;;;;;;5086578;28;20440;-69
2023/10/17 03:30:59;;;;;;;4.57;2.17;;;;;;;;;;5085191;28;20432;-69
2023/10/17 03:33:29;;;;;;;2.70;2.50;;;;;;;;;;5088167;28;20431;-69
2023/10/17 03:38:31;;;;;;;1.80;1.80;;;;;;;;;;5085001;28;20491;-69
2023/10/17 03:41:06;;;;;;;1.67;1.57;;;;;;;;;;5081468;28;20443;-69
2023/10/17 03:43:38;;;;;;;2.00;1.90;;;;;;;;;;5085979;28;20536;-70
2023/10/17 03:46:07;;;;;;;2.00;2.00;;;;;;;;;;5081225;28;21189;-69
2023/10/17 03:48:36;;;;;;;1.87;1.77;;;;;;;;;;5082342;28;20429;-71
2023/10/17 03:53:36;;;;;;;1.77;1.77;;;;;;;;;;5084026;28;20432;-69
2023/10/17 03:56:03;;;;;;;2.50;2.30;;;;;;;;;;5079738;28;20999;-69
2023/10/17 04:01:00;;;;;;;3.27;2.13;;;;;;;;;;5083357;28;20463;-69
2023/10/17 04:03:30;;;;;;;2.97;2.43;;;;;;;;;;5080474;28;20498;-69
2023/10/17 04:08:49;;;;;;;1.70;1.60;;;;;;;;;;5079394;28;20576;-70
2023/10/17 04:13:50;;;;;;;2.53;2.10;;;;;;;;;;5081859;28;20446;-69
2023/10/17 04:16:26;;;;;;;2.47;2.47;;;;;;;;;;5087778;28;20513;-71
2023/10/17 04:18:57;;;;;;;2.13;2.03;;;;;;;;;;5083892;28;20492;-72
2023/10/17 04:21:36;;;;;;;2.40;2.33;;;;;;;;;;5084456;28;20436;-71
2023/10/17 04:24:05;;;;;;;1.80;1.80;;;;;;;;;;5088021;28;20458;-70
2023/10/17 04:26:34;;;;;;;2.17;2.17;;;;;;;;;;5084594;28;20523;-73
2023/10/17 04:29:11;;;;;;;2.50;2.30;;;;;;;;;;5090354;28;20447;-70
2023/10/17 04:31:37;;;;;;;5.50;2.40;;;;;;;;;;5089763;28;20467;-70
2023/10/17 04:34:06;;;;;;;2.50;2.30;;;;;;;;;;5088631;28;20490;-72
2023/10/17 04:36:37;;;;;;;2.40;2.00;;;;;;;;;;5087698;28;20433;-70
2023/10/17 04:39:11;;;;;;;2.40;2.30;;;;;;;;;;5090275;28;20480;-70
2023/10/17 04:42:04;;;;;;;2.50;2.40;;;;;;;;;;5084955;28;20439;-70
2023/10/17 04:44:38;;;;;;;2.30;2.20;;;;;;;;;;5085496;28;20455;-69
2023/10/17 04:49:50;;;;;;;2.20;2.20;;;;;;;;;;5090379;28;20440;-69
2023/10/17 04:52:21;;;;;;;1.90;1.90;;;;;;;;;;5090106;28;21027;-69
2023/10/17 04:54:53;;;;;;;2.30;2.17;;;;;;;;;;5091728;28;20412;-71
2023/10/17 04:57:21;;;;;;;2.00;2.00;;;;;;;;;;5087932;28;20503;-71
2023/10/17 05:02:35;;;;;;;2.63;2.33;;;;;;;;;;5090586;28;20468;-72
2023/10/17 06:16:52;;;;;;;2.70;2.60;;;;;;;;;;5087123;28;20445;-68
2023/10/17 06:19:21;;;;;;;7.53;2.40;;;;;;;;;;5086874;28;21051;-67
2023/10/17 06:34:47;;;;;;;2.43;2.43;;;;;;;;;;5087256;28;20481;-69
2023/10/17 06:37:20;;;;;;;8.50;5.40;;;;;;;;;;5080599;28;20437;-67
2023/10/17 06:39:50;;;;;;;8.97;6.17;;;;;;;;;;5079852;28;20973;-68
2023/10/17 06:42:27;;;;;;;7.57;3.20;;;;;;;;;;5084891;28;20428;-68
2023/10/17 06:45:18;;;;;;;4.93;3.97;;;;;;;;;;5087994;28;20589;-68
2023/10/17 06:47:47;;;;;;;7.13;4.70;;;;;;;;;;5088446;28;20925;-67
2023/10/17 06:55:29;;;;;;;19.47;10.73;;;;;;;;;;5078712;28;20447;-67
2023/10/17 06:57:57;;;;;;;6.60;6.00;;;;;;;;;;5082582;28;20483;-69
2023/10/17 07:02:49;;;;;;;8.40;4.10;;;;;;;;;;5087651;28;20429;-67
2023/10/17 07:05:21;;;;;;;5.40;5.00;;;;;;;;;;5084678;28;20440;-67
2023/10/17 07:07:52;;;;;;;10.50;3.80;;;;;;;;;;5082703;28;20429;-67
2023/10/17 07:10:24;;;;;;;4.23;3.67;;;;;;;;;;5087578;28;20453;-68
2023/10/17 07:13:18;;;;;;;5.63;3.50;;;;;;;;;;5084135;28;20995;-67
2023/10/17 07:15:44;;;;;;;6.00;3.00;;;;;;;;;;5086265;28;20441;-67
2023/10/17 07:23:43;;;;;;;4.30;3.97;;;;;;;;;;5089398;28;20553;-67
2023/10/17 07:26:58;;;;;;;13.67;4.73;;;;;;;;;;5085109;28;20429;-67
2023/10/17 07:28:59;;;;;;;4.23;3.83;;;;;;;;;;5083551;28;20532;-67
2023/10/17 07:31:25;;;;;;;4.33;4.03;;;;;;;;;;5088006;28;20444;-67
2023/10/17 07:36:34;;;;;;;3.17;2.87;;;;;;;;;;5089601;28;20427;-68
2023/10/17 07:39:05;;;;;;;3.20;3.00;;;;;;;;;;5086653;28;20476;-68
2023/10/17 07:41:37;;;;;;;2.73;2.53;;;;;;;;;;5089549;28;20491;-68
2023/10/17 07:44:19;;;;;;;2.77;2.57;;;;;;;;;;5082834;28;20477;-68
2023/10/17 07:46:50;;;;;;;3.70;3.60;;;;;;;;;;5083862;28;20784;-68
2023/10/17 07:49:25;;;;;;;3.77;3.30;;;;;;;;;;5090845;28;20447;-68
2023/10/17 07:51:51;;;;;;;2.80;2.70;;;;;;;;;;5092829;28;20416;-68
2023/10/17 07:54:18;;;;;;;3.40;3.20;;;;;;;;;;5091781;28;20842;-69
2023/10/17 07:56:50;;;;;;;2.93;1.93;;;;;;;;;;5089063;28;20525;-68
2023/10/17 07:59:16;;;;;;;3.10;2.93;;;;;;;;;;5089996;28;20476;-67
2023/10/17 08:01:46;;;;;;;3.10;2.90;;;;;;;;;;5086350;28;20480;-68
2023/10/17 08:06:41;;;;;;;2.67;2.57;;;;;;;;;;5090311;28;20954;-67
2023/10/17 08:09:18;;;;;;;3.70;2.20;;;;;;;;;;5093180;28;20425;-67
2023/10/17 08:11:46;;;;;;;18.47;2.30;;;;;;;;;;5090935;28;20493;-67
2023/10/17 08:14:16;;;;;;;2.90;2.73;;;;;;;;;;5089987;28;20459;-67
2023/10/17 08:16:43;;;;;;;2.97;2.67;;;;;;;;;;5087089;28;20828;-67
2023/10/17 08:19:22;;;;;;;5.60;3.37;;;;;;;;;;5091118;28;20484;-67
2023/10/17 08:27:17;;;;;;;3.27;3.10;;;;;;;;;;5089647;28;20443;-67
2023/10/17 08:29:45;;;;;;;3.60;2.73;;;;;;;;;;5087349;28;20510;-67
2023/10/17 08:32:38;;;;;;;3.60;3.30;;;;;;;;;;5089765;28;20451;-68
2023/10/17 08:35:19;;;;;;;2.67;2.57;;;;;;;;;;5084594;28;20436;-67
2023/10/17 08:37:45;;;;;;;3.10;3.00;;;;;;;;;;5085993;28;20431;-68
2023/10/17 08:40:40;;;;;;;10.50;3.00;;;;;;;;;;5086102;28;21073;-68
2023/10/17 08:43:10;;;;;;;2.60;2.50;;;;;;;;;;5090763;28;20435;-68
2023/10/17 08:45:38;;;;;;;5.87;3.03;;;;;;;;;;5090299;28;20561;-68
2023/10/17 08:48:06;;;;;;;6.50;6.00;;;;;;;;;;5087370;28;20964;-67
2023/10/17 08:50:38;;;;;;;6.47;6.00;;;;;;;;;;5084395;28;20885;-69
2023/10/17 08:53:42;;;;;;;4.37;4.03;;;;;;;;;;5084726;28;20445;-67
2023/10/17 08:56:02;;;;;;;6.77;6.07;;;;;;;;;;5089049;28;20522;-67
2023/10/17 08:58:36;;;;;;;7.30;6.60;;;;;;;;;;5089228;28;20471;-68
2023/10/17 09:01:14;;;;;;;7.23;6.63;;;;;;;;;;5089637;28;20413;-68
2023/10/17 09:03:43;;;;;;;5.23;4.93;;;;;;;;;;5089879;28;20420;-68
2023/10/17 09:11:29;;;;;;;4.90;4.47;;;;;;;;;;5090640;28;20488;-67
2023/10/17 09:14:15;;;;;;;4.87;4.50;;;;;;;;;;5089345;28;20489;-67
2023/10/17 09:16:49;;;;;;;7.03;6.33;;;;;;;;;;5089879;28;20427;-67
2023/10/17 09:19:15;;;;;;;8.00;6.90;;;;;;;;;;5090287;28;20488;-67
2023/10/17 09:21:47;;;;;;;8.13;7.43;;;;;;;;;;5088648;28;20429;-68
2023/10/17 09:24:29;;;;;;;6.90;6.37;;;;;;;;;;5088786;28;20447;-68
2023/10/17 09:26:56;;;;;;;8.90;5.93;;;;;;;;;;5091167;28;20421;-68
2023/10/17 09:29:22;;;;;;;6.10;5.50;;;;;;;;;;5090236;28;20501;-68
2023/10/17 09:31:50;;;;;;;4.13;3.90;;;;;;;;;;5089367;28;21766;-68
2023/10/17 09:34:17;;;;;;;4.23;4.13;;;;;;;;;;5088725;28;20441;-68
2023/10/17 09:36:43;;;;;;;5.13;4.83;;;;;;;;;;5089065;28;20443;-68
2023/10/17 09:39:15;;;;;;;4.90;4.40;;;;;;;;;;5091126;28;20487;-68
2023/10/17 09:41:41;;;;;;;4.27;4.00;;;;;;;;;;5089305;28;20413;-68
2023/10/17 09:44:10;;;;;;;8.60;6.90;;;;;;;;;;5088761;28;20457;-68
2023/10/17 09:46:36;;;;;;;8.07;7.03;;;;;;;;;;5089578;28;20536;-68
2023/10/17 09:49:03;;;;;;;4.43;4.13;;;;;;;;;;5091261;28;20457;-68
2023/10/17 09:51:33;;;;;;;4.90;4.50;;;;;;;;;;5087002;28;20532;-69
2023/10/17 09:53:59;;;;;;;2.40;2.33;;;;;;;;;;5086820;28;20454;-68
2023/10/17 09:56:31;;;;;;;4.27;4.07;;;;;;;;;;5089513;28;20468;-68
2023/10/17 09:59:00;;;;;;;3.73;3.63;;;;;;;;;;5085886;28;21707;-68
2023/10/17 10:01:31;;;;;;;4.37;3.93;;;;;;;;;;5085470;28;20436;-68
2023/10/17 10:03:58;;;;;;;3.80;3.60;;;;;;;;;;5086991;28;20448;-68
2023/10/17 10:06:27;;;;;;;3.90;3.80;;;;;;;;;;5088705;28;20425;-68
2023/10/17 10:08:56;;;;;;;3.83;3.33;;;;;;;;;;5090403;28;20787;-68
2023/10/17 10:11:42;;;;;;;3.50;3.30;;;;;;;;;;5090803;28;20446;-68
2023/10/17 10:14:08;;;;;;;3.80;3.53;;;;;;;;;;5088580;28;20408;-68
2023/10/17 10:16:49;;;;;;;3.50;3.30;;;;;;;;;;5086777;28;20433;-68
2023/10/17 10:19:16;;;;;;;2.60;1.70;;;;;;;;;;5085415;28;20507;-68
2023/10/17 10:21:58;;;;;;;5.63;2.90;;;;;;;;;;5085439;28;20436;-68
2023/10/17 10:24:31;;;;;;;3.23;2.90;;;;;;;;;;5087180;28;20448;-68
2023/10/17 10:27:15;;;;;;;2.63;2.53;;;;;;;;;;5087945;28;20459;-68
2023/10/17 10:29:42;;;;;;;3.23;2.93;;;;;;;;;;5090434;28;20424;-68
2023/10/17 10:32:26;;;;;;;3.83;3.57;;;;;;;;;;5087207;28;20486;-68
2023/10/17 10:34:53;;;;;;;3.23;3.03;;;;;;;;;;5088191;28;20420;-68
2023/10/17 10:37:22;;;;;;;2.57;2.47;;;;;;;;;;5086643;28;20534;-68
2023/10/17 10:40:10;;;;;;;7.53;3.40;;;;;;;;;;5088813;28;20491;-68
2023/10/17 10:42:53;;;;;;;3.40;3.10;;;;;;;;;;5080689;28;20432;-68
2023/10/17 10:45:35;;;;;;;13.97;2.60;;;;;;;;;;5084308;28;20455;-68
2023/10/17 10:48:04;;;;;;;3.70;2.90;;;;;;;;;;5082646;28;20459;-67
2023/10/17 10:50:34;;;;;;;2.70;2.60;;;;;;;;;;5080677;28;20452;-68
2023/10/17 10:53:01;;;;;;;2.60;2.50;;;;;;;;;;5087393;28;20920;-68
2023/10/17 10:55:27;;;;;;;2.67;2.57;;;;;;;;;;5087217;28;20443;-68
2023/10/17 10:57:54;;;;;;;3.70;3.30;;;;;;;;;;5080174;28;20501;-68
2023/10/17 11:00:20;;;;;;;2.50;2.40;;;;;;;;;;5087752;28;20444;-68
2023/10/17 11:02:46;;;;;;;2.87;2.77;;;;;;;;;;5087921;28;20427;-68
2023/10/17 11:05:15;;;;;;;5.40;3.50;;;;;;;;;;5089269;28;20831;-70
2023/10/17 11:07:42;;;;;;;7.10;3.43;;;;;;;;;;5081503;28;20504;-67
2023/10/17 11:10:14;;;;;;;3.90;3.20;;;;;;;;;;5087443;28;20425;-69
2023/10/17 11:12:41;;;;;;;3.33;2.70;;;;;;;;;;5085510;28;20437;-68
2023/10/17 11:15:09;;;;;;;2.53;2.33;;;;;;;;;;5086126;28;20424;-68
2023/10/17 11:17:35;;;;;;;1.27;1.27;;;;;;;;;;5089477;28;20779;-68
2023/10/17 11:20:09;;;;;;;3.37;2.90;;;;;;;;;;5086394;28;20484;-69
2023/10/17 11:22:40;;;;;;;2.40;2.20;;;;;;;;;;5087156;28;20416;-69
2023/10/17 11:25:07;;;;;;;4.00;3.10;;;;;;;;;;5088494;28;20444;-68
2023/10/17 11:27:33;;;;;;;2.80;2.60;;;;;;;;;;5084145;28;20444;-69
2023/10/17 11:29:59;;;;;;;3.13;3.00;;;;;;;;;;5088184;28;20436;-69
2023/10/17 11:32:26;;;;;;;2.70;2.50;;;;;;;;;;5089683;28;20421;-69
2023/10/17 11:35:05;;;;;;;2.10;2.10;;;;;;;;;;5087403;28;20428;-70
2023/10/17 11:37:34;;;;;;;2.57;2.47;;;;;;;;;;5087876;28;20416;-68
2023/10/17 11:40:26;;;;;;;2.83;2.57;;;;;;;;;;5079820;28;20484;-68
2023/10/17 11:42:49;;;;;;;13.20;2.33;;;;;;;;;;5083627;28;20433;-68
2023/10/17 11:45:33;;;;;;;2.73;2.60;;;;;;;;;;5087940;28;20439;-68
2023/10/17 11:48:03;;;;;;;2.17;2.07;;;;;;;;;;5085891;28;20779;-69
2023/10/17 11:50:34;;;;;;;3.03;2.90;;;;;;;;;;5087096;28;20456;-68
2023/10/17 11:53:09;;;;;;;2.70;2.50;;;;;;;;;;5085022;28;20960;-68
2023/10/17 11:55:42;;;;;;;2.60;2.50;;;;;;;;;;5084994;28;20447;-68
2023/10/17 11:58:08;;;;;;;2.50;2.37;;;;;;;;;;5083181;28;20580;-68
2023/10/17 12:00:35;;;;;;;2.87;2.77;;;;;;;;;;5086690;28;20882;-68
2023/10/17 12:03:01;;;;;;;3.90;3.63;;;;;;;;;;5081404;28;20794;-69
2023/10/17 12:05:32;;;;;;;3.40;3.30;;;;;;;;;;5078534;28;20593;-68
2023/10/17 12:07:59;;;;;;;3.33;2.70;;;;;;;;;;5081219;28;20447;-68
2023/10/17 12:10:25;;;;;;;2.53;2.43;;;;;;;;;;5081174;28;20791;-69
2023/10/17 12:13:05;;;;;;;2.07;1.97;;;;;;;;;;5084502;28;20424;-68
2023/10/17 12:15:31;;;;;;;2.80;2.70;;;;;;;;;;5083637;28;20440;-68
2023/10/17 12:17:57;;;;;;;2.63;2.53;;;;;;;;;;5087972;28;20853;-68
2023/10/17 12:20:26;;;;;;;3.00;2.80;;;;;;;;;;5084296;28;20465;-69
2023/10/17 12:22:55;;;;;;;5.90;2.70;;;;;;;;;;5087811;28;20428;-68
2023/10/17 12:25:23;;;;;;;2.83;2.53;;;;;;;;;;5087347;28;20795;-68
2023/10/17 12:27:53;;;;;;;2.90;2.70;;;;;;;;;;5088690;28;20961;-68
2023/10/17 12:30:24;;;;;;;3.27;3.03;;;;;;;;;;5083827;28;20432;-68
2023/10/17 12:32:50;;;;;;;3.40;3.10;;;;;;;;;;5087477;28;20816;-68
2023/10/17 12:35:16;;;;;;;2.90;2.63;;;;;;;;;;5089029;28;20511;-67
2023/10/17 12:37:45;;;;;;;12.50;2.90;;;;;;;;;;5090107;28;20439;-68
2023/10/17 12:40:23;;;;;;;2.57;2.57;;;;;;;;;;5084776;28;20894;-68
2023/10/17 12:42:50;;;;;;;2.60;2.50;;;;;;;;;;5085177;28;21539;-68
2023/10/17 12:45:17;;;;;;;2.27;2.17;;;;;;;;;;5089599;28;20444;-69
2023/10/17 12:47:43;;;;;;;2.77;2.57;;;;;;;;;;5088411;28;20485;-68
2023/10/17 12:50:13;;;;;;;3.50;3.20;;;;;;;;;;5088525;28;20645;-69
2023/10/17 12:52:39;;;;;;;19.57;2.60;;;;;;;;;;5090172;28;20843;-68
2023/10/17 12:55:07;;;;;;;2.67;2.57;;;;;;;;;;5091335;28;20527;-69
2023/10/17 12:57:33;;;;;;;3.97;2.53;;;;;;;;;;5089141;28;20986;-69
2023/10/17 12:59:59;;;;;;;2.50;2.30;;;;;;;;;;5092098;28;20502;-68
2023/10/17 13:02:29;;;;;;;2.50;2.40;;;;;;;;;;5087904;28;20928;-68
2023/10/17 13:04:55;;;;;;;2.60;2.50;;;;;;;;;;5090167;28;20960;-68
2023/10/17 13:07:23;;;;;;;4.13;3.70;;;;;;;;;;5091338;28;20416;-68
2023/10/17 13:09:49;;;;;;;5.93;2.47;;;;;;;;;;5092021;28;20425;-68
2023/10/17 13:12:15;;;;;;;3.20;3.10;;;;;;;;;;5088842;28;20795;-68
2023/10/17 13:14:41;;;;;;;4.27;3.20;;;;;;;;;;5090562;28;20432;-67
2023/10/17 13:17:11;;;;;;;3.00;2.90;;;;;;;;;;5090002;28;20433;-68
2023/10/17 13:19:43;;;;;;;3.53;3.33;;;;;;;;;;5087457;28;20491;-68
2023/10/17 13:22:14;;;;;;;4.30;3.43;;;;;;;;;;5088086;28;20561;-67
2023/10/17 13:24:40;;;;;;;3.13;2.93;;;;;;;;;;5085589;28;20438;-68
2023/10/17 13:27:06;;;;;;;3.00;2.90;;;;;;;;;;5085118;28;20448;-68
2023/10/17 13:29:33;;;;;;;3.10;2.90;;;;;;;;;;5090833;28;20485;-68
2023/10/17 13:32:00;;;;;;;2.53;2.50;;;;;;;;;;5084335;28;20535;-68
2023/10/17 13:34:28;;;;;;;3.10;2.80;;;;;;;;;;5086015;28;20426;-68
2023/10/17 13:36:54;;;;;;;3.23;3.03;;;;;;;;;;5091111;28;20955;-68
2023/10/17 13:39:22;;;;;;;3.53;3.20;;;;;;;;;;5088667;28;20510;-67
2023/10/17 13:41:48;;;;;;;5.13;4.00;;;;;;;;;;5085911;28;20436;-68
2023/10/17 13:44:15;;;;;;;2.40;2.30;;;;;;;;;;5085844;28;20455;-68
2023/10/17 13:46:41;;;;;;;3.13;3.03;;;;;;;;;;5087440;28;20420;-68
2023/10/17 13:49:08;;;;;;;3.30;3.10;;;;;;;;;;5088979;28;20428;-68
2023/10/17 13:51:35;;;;;;;3.10;2.97;;;;;;;;;;5088340;28;20440;-68
2023/10/17 13:54:01;;;;;;;3.70;2.97;;;;;;;;;;5085662;28;20456;-68
2023/10/17 13:56:27;;;;;;;2.10;1.90;;;;;;;;;;5086177;28;20473;-69
2023/10/17 13:58:53;;;;;;;3.07;2.97;;;;;;;;;;5084974;28;20554;-68
2023/10/17 14:01:32;;;;;;;2.10;2.03;;;;;;;;;;5084746;28;20512;-68
2023/10/17 14:03:59;;;;;;;3.17;2.87;;;;;;;;;;5087037;28;20557;-68
2023/10/17 14:06:27;;;;;;;4.17;3.80;;;;;;;;;;5090293;28;20437;-68
2023/10/17 14:08:55;;;;;;;3.00;2.80;;;;;;;;;;5088165;28;20948;-68
2023/10/17 14:11:21;;;;;;;3.13;3.00;;;;;;;;;;5069628;28;20439;-68
2023/10/17 14:13:49;;;;;;;4.40;4.10;;;;;;;;;;5084914;28;20522;-67
2023/10/17 14:16:15;;;;;;;3.10;2.90;;;;;;;;;;5086621;28;20433;-68
2023/10/17 14:18:44;;;;;;;4.60;3.00;;;;;;;;;;5085576;28;20472;-68
2023/10/17 14:21:23;;;;;;;3.33;3.03;;;;;;;;;;5085491;28;20445;-68
2023/10/17 14:23:58;;;;;;;11.20;3.60;;;;;;;;;;5089353;28;21008;-68
2023/10/17 14:26:28;;;;;;;4.50;3.33;;;;;;;;;;5087307;28;20939;-68
2023/10/17 14:29:00;;;;;;;4.30;3.90;;;;;;;;;;5089007;28;20948;-68
2023/10/17 14:31:26;;;;;;;3.47;3.27;;;;;;;;;;5086798;28;20783;-68
2023/10/17 14:33:55;;;;;;;3.90;3.70;;;;;;;;;;5084561;28;20515;-68
2023/10/17 14:36:21;;;;;;;3.40;3.30;;;;;;;;;;5089757;28;20448;-68
2023/10/17 14:38:47;;;;;;;3.80;3.60;;;;;;;;;;5085868;28;21038;-68
2023/10/17 14:41:14;;;;;;;7.27;3.90;;;;;;;;;;5086852;28;20948;-68
2023/10/17 14:43:49;;;;;;;4.53;4.20;;;;;;;;;;5086037;28;20426;-68
2023/10/17 14:46:16;;;;;;;3.67;3.40;;;;;;;;;;5087064;28;20432;-68
2023/10/17 14:48:42;;;;;;;4.27;4.07;;;;;;;;;;5088613;28;20521;-68
2023/10/17 14:51:09;;;;;;;3.40;3.20;;;;;;;;;;5089161;28;20412;-68
2023/10/17 14:53:35;;;;;;;3.63;2.90;;;;;;;;;;5088264;28;20440;-68
2023/10/17 14:56:04;;;;;;;2.93;2.90;;;;;;;;;;5089175;28;20523;-68
2023/10/17 14:58:34;;;;;;;9.00;3.70;;;;;;;;;;5086746;28;20484;-68
2023/10/17 15:01:00;;;;;;;3.93;3.57;;;;;;;;;;5089274;28;20669;-68
2023/10/17 15:03:26;;;;;;;3.30;3.10;;;;;;;;;;5087959;28;20465;-67
2023/10/17 15:05:56;;;;;;;15.83;4.20;;;;;;;;;;5088707;28;20437;-68
2023/10/17 15:08:22;;;;;;;4.10;3.80;;;;;;;;;;5088322;28;20569;-68
2023/10/17 15:10:48;;;;;;;3.53;3.43;;;;;;;;;;5089966;28;20409;-68
2023/10/17 15:13:17;;;;;;;14.17;3.67;;;;;;;;;;5084766;28;20433;-67
2023/10/17 15:15:43;;;;;;;12.00;3.27;;;;;;;;;;5088427;28;20445;-68
2023/10/17 15:18:09;;;;;;;6.10;3.80;;;;;;;;;;5086777;28;20439;-68
2023/10/17 15:20:35;;;;;;;7.30;3.07;;;;;;;;;;5083854;28;20445;-68
2023/10/17 15:23:01;;;;;;;2.90;2.80;;;;;;;;;;5087164;28;20928;-67
2023/10/17 15:25:29;;;;;;;5.07;3.80;;;;;;;;;;5089638;28;20440;-67
2023/10/17 15:27:55;;;;;;;3.30;2.97;;;;;;;;;;5085909;28;20421;-68
2023/10/17 15:30:22;;;;;;;3.60;3.27;;;;;;;;;;5083391;28;20486;-68
2023/10/17 15:32:49;;;;;;;3.53;3.17;;;;;;;;;;5088212;28;20417;-68
2023/10/17 15:35:15;;;;;;;3.13;3.07;;;;;;;;;;5081887;28;20452;-68
2023/10/17 15:37:46;;;;;;;5.53;3.30;;;;;;;;;;5081653;28;20796;-68
2023/10/17 15:40:16;;;;;;;3.53;3.27;;;;;;;;;;5084188;28;20537;-68
2023/10/17 15:42:43;;;;;;;7.43;3.73;;;;;;;;;;5084688;28;20516;-67
2023/10/17 15:45:11;;;;;;;8.67;4.33;;;;;;;;;;5087062;28;20460;-67
2023/10/17 15:47:38;;;;;;;3.50;3.30;;;;;;;;;;5086744;28;20427;-68
2023/10/17 15:50:04;;;;;;;4.23;4.03;;;;;;;;;;5086120;28;20971;-68
2023/10/17 15:52:30;;;;;;;6.17;3.40;;;;;;;;;;5082889;28;20950;-67
2023/10/17 15:54:57;;;;;;;3.80;3.70;;;;;;;;;;5087442;28;20429;-68
2023/10/17 15:57:23;;;;;;;3.90;3.60;;;;;;;;;;5086597;28;20464;-67
2023/10/17 15:59:53;;;;;;;4.97;3.40;;;;;;;;;;5087906;28;20475;-68
2023/10/17 16:02:19;;;;;;;4.93;3.30;;;;;;;;;;5086488;28;20441;-67
2023/10/17 16:04:45;;;;;;;4.10;3.03;;;;;;;;;;5088255;28;20452;-68
2023/10/17 16:07:11;;;;;;;4.07;3.30;;;;;;;;;;5086000;28;20481;-68
2023/10/17 16:09:39;;;;;;;3.10;2.90;;;;;;;;;;5087469;28;20474;-68
2023/10/17 16:12:05;;;;;;;3.07;2.97;;;;;;;;;;5083062;28;20436;-67
2023/10/17 16:14:31;;;;;;;3.27;3.17;;;;;;;;;;5086223;28;20964;-69
2023/10/17 16:16:57;;;;;;;3.50;3.20;;;;;;;;;;5092294;28;20488;-69
2023/10/17 16:19:24;;;;;;;9.03;3.50;;;;;;;;;;5085897;28;20480;-67
2023/10/17 16:21:50;;;;;;;4.80;4.43;;;;;;;;;;5087439;28;20431;-68
2023/10/17 16:24:16;;;;;;;4.20;4.00;;;;;;;;;;5089382;28;20914;-68
2023/10/17 16:26:43;;;;;;;6.60;4.80;;;;;;;;;;5083785;28;20428;-68
2023/10/17 16:29:09;;;;;;;10.83;2.97;;;;;;;;;;5086358;28;20428;-67
2023/10/17 16:31:35;;;;;;;8.40;4.00;;;;;;;;;;5089529;28;20463;-67
2023/10/17 16:34:01;;;;;;;3.43;3.23;;;;;;;;;;5085971;28;20436;-68
2023/10/17 16:36:27;;;;;;;4.00;3.70;;;;;;;;;;5081901;28;20448;-68
2023/10/17 16:38:53;;;;;;;5.60;4.40;;;;;;;;;;5087290;28;20494;-67
2023/10/17 16:41:19;;;;;;;3.70;3.60;;;;;;;;;;5088236;28;20462;-67
2023/10/17 16:43:45;;;;;;;3.77;3.60;;;;;;;;;;5085396;28;20489;-68
2023/10/17 16:46:11;;;;;;;6.20;4.83;;;;;;;;;;5088194;28;20428;-68
2023/10/17 16:48:37;;;;;;;3.73;3.63;;;;;;;;;;5087572;28;20507;-67
2023/10/17 16:51:04;;;;;;;4.50;4.07;;;;;;;;;;5085775;28;20527;-67
2023/10/17 16:53:30;;;;;;;6.20;4.73;;;;;;;;;;5071413;28;20472;-68
2023/10/17 16:55:57;;;;;;;3.77;3.47;;;;;;;;;;5087250;28;20492;-69
2023/10/17 16:58:23;;;;;;;4.10;3.90;;;;;;;;;;5089781;28;20472;-69
2023/10/17 17:00:50;;;;;;;4.40;4.00;;;;;;;;;;5088957;28;20864;-68
2023/10/17 17:03:16;;;;;;;8.63;4.93;;;;;;;;;;5090231;28;20454;-68
2023/10/17 17:05:42;;;;;;;6.27;4.03;;;;;;;;;;5090462;28;20425;-68
2023/10/17 17:08:09;;;;;;;4.80;4.23;;;;;;;;;;5089171;28;20432;-68
2023/10/17 17:10:42;;;;;;;4.30;3.90;;;;;;;;;;5091558;28;20485;-68
2023/10/17 17:13:11;;;;;;;4.83;4.53;;;;;;;;;;5091237;28;20420;-67
2023/10/17 17:15:37;;;;;;;7.70;5.03;;;;;;;;;;5087211;28;20943;-68
2023/10/17 17:18:05;;;;;;;4.63;4.23;;;;;;;;;;5088691;28;20456;-68